Time;durP1;ratioP1;P1;durP2;ratioP2;P2;SDS_P1;SDS_P2;PMS_P1;PMS_P2;Temp;Humidity;BMP_temperature;BMP_pressure;BME280_temperature;BME280_humidity;BME280_pressure;Samples;Min_cycle;Max_cycle;Signal;HPM_P1;HPM_P2
2022/09/30 00:02:42;;;;;;;6.20;5.57;;;8.70;99.90;;;;;;5086922;28;20450;-77
2022/09/30 00:05:26;;;;;;;13.73;4.83;;;9.00;99.90;;;;;;5070396;28;20459;-78
2022/09/30 00:08:11;;;;;;;11.43;4.60;;;8.90;99.90;;;;;;5080272;28;20412;-79
2022/09/30 00:11:06;;;;;;;5.40;4.70;;;8.70;99.90;;;;;;5079019;28;20730;-79
2022/09/30 00:13:52;;;;;;;12.37;5.40;;;8.70;99.90;;;;;;5078960;28;20418;-78
2022/09/30 00:16:37;;;;;;;13.00;5.40;;;8.50;99.90;;;;;;5064488;28;20471;-79
2022/09/30 00:19:22;;;;;;;8.07;6.47;;;8.30;99.90;;;;;;5064034;28;20396;-79
2022/09/30 00:22:07;;;;;;;5.30;4.90;;;8.10;99.90;;;;;;5063662;28;20385;-79
2022/09/30 00:24:51;;;;;;;8.67;5.97;;;7.90;99.90;;;;;;5079120;28;20976;-78
2022/09/30 00:27:36;;;;;;;6.83;6.20;;;7.80;99.90;;;;;;5078970;28;20885;-77
2022/09/30 00:30:21;;;;;;;5.73;5.13;;;7.70;99.90;;;;;;5079603;28;20405;-79
2022/09/30 00:33:06;;;;;;;6.63;5.67;;;7.60;99.90;;;;;;5079108;28;20430;-79
2022/09/30 00:35:51;;;;;;;5.47;4.73;;;7.60;99.90;;;;;;5065159;28;20919;-78
2022/09/30 00:38:35;;;;;;;6.90;4.53;;;7.50;99.90;;;;;;5084307;28;20708;-78
2022/09/30 00:41:21;;;;;;;10.03;5.67;;;7.40;99.90;;;;;;5084709;28;20391;-77
2022/09/30 00:44:37;;;;;;;6.57;5.83;;;7.50;99.90;;;;;;5085095;28;20389;-78
2022/09/30 00:47:32;;;;;;;5.47;5.03;;;7.40;99.90;;;;;;5086535;28;20421;-76
2022/09/30 00:50:28;;;;;;;6.47;5.87;;;7.50;99.90;;;;;;5076519;28;20396;-76
2022/09/30 00:53:19;;;;;;;6.17;4.13;;;7.40;99.90;;;;;;5077170;28;20370;-78
2022/09/30 00:56:13;;;;;;;5.83;4.80;;;7.40;99.90;;;;;;5075642;28;20900;-79
2022/09/30 00:59:07;;;;;;;7.33;4.23;;;7.30;99.90;;;;;;5090533;28;20359;-78
2022/09/30 01:01:52;;;;;;;7.97;5.27;;;7.40;99.90;;;;;;5076330;28;20460;-78
2022/09/30 01:04:37;;;;;;;6.90;5.40;;;7.50;99.90;;;;;;5076258;28;20413;-78
2022/09/30 01:07:23;;;;;;;6.40;4.53;;;7.50;99.90;;;;;;5092130;28;20397;-78
2022/09/30 01:10:08;;;;;;;6.17;5.67;;;7.30;99.90;;;;;;5091096;28;20396;-78
2022/09/30 01:12:53;;;;;;;4.13;3.83;;;7.20;99.90;;;;;;5072596;28;20721;-80
2022/09/30 01:15:56;;;;;;;6.23;4.33;;;7.00;99.90;;;;;;5069281;28;20455;-79
2022/09/30 01:18:57;;;;;;;5.60;3.70;;;6.70;99.90;;;;;;5081968;28;20928;-80
2022/09/30 01:22:08;;;;;;;4.60;3.80;;;6.60;99.90;;;;;;5082539;28;20457;-80
2022/09/30 01:25:24;;;;;;;5.03;3.63;;;6.50;99.90;;;;;;5082814;28;20389;-79
2022/09/30 01:28:45;;;;;;;4.80;4.40;;;6.50;99.90;;;;;;5081978;28;20432;-79
2022/09/30 01:31:48;;;;;;;4.00;3.70;;;6.40;99.90;;;;;;5083321;28;20369;-79
2022/09/30 01:35:03;;;;;;;3.13;2.83;;;6.20;99.90;;;;;;5068715;28;20423;-79
2022/09/30 01:38:18;;;;;;;3.50;3.20;;;6.20;99.90;;;;;;5084116;28;20377;-79
2022/09/30 01:41:17;;;;;;;4.17;3.77;;;6.10;99.90;;;;;;5081502;28;20428;-77
2022/09/30 01:44:13;;;;;;;3.13;2.63;;;6.00;99.90;;;;;;5030175;28;20404;-77
2022/09/30 01:47:07;;;;;;;3.60;3.30;;;6.00;99.90;;;;;;5015620;28;20537;-77
2022/09/30 01:50:11;;;;;;;3.73;3.33;;;6.20;99.90;;;;;;5024001;28;20493;-80
2022/09/30 01:53:05;;;;;;;7.30;3.77;;;6.30;99.90;;;;;;5019877;28;20464;-78
2022/09/30 01:55:59;;;;;;;3.40;3.00;;;6.40;99.90;;;;;;5020020;28;20388;-79
2022/09/30 01:58:55;;;;;;;6.80;4.43;;;6.70;99.90;;;;;;5020449;28;20407;-79
2022/09/30 02:01:50;;;;;;;3.70;3.40;;;6.70;99.90;;;;;;5005728;28;20444;-79
2022/09/30 02:04:40;;;;;;;9.70;3.67;;;6.80;99.90;;;;;;5020138;28;20488;-79
2022/09/30 02:07:40;;;;;;;6.33;4.37;;;6.80;99.90;;;;;;5019956;28;20454;-80
2022/09/30 02:10:33;;;;;;;8.60;6.37;;;6.90;99.90;;;;;;5019450;28;20446;-79
2022/09/30 02:13:24;;;;;;;46.90;8.23;;;7.40;99.90;;;;;;5026369;28;20388;-78
2022/09/30 02:16:13;;;;;;;21.67;6.27;;;7.50;99.90;;;;;;5074876;28;20393;-79
2022/09/30 02:19:07;;;;;;;7.90;5.60;;;7.40;99.90;;;;;;5052052;28;20511;-80
2022/09/30 02:21:59;;;;;;;8.70;6.30;;;7.30;99.90;;;;;;5066189;28;20465;-80
2022/09/30 02:24:45;;;;;;;7.13;4.83;;;7.10;99.90;;;;;;5080777;28;20360;-80
2022/09/30 02:27:40;;;;;;;13.27;5.37;;;7.00;99.90;;;;;;5081084;28;20381;-79
2022/09/30 02:30:26;;;;;;;6.47;5.10;;;7.20;99.90;;;;;;5051936;28;20383;-79
2022/09/30 02:33:18;;;;;;;17.90;7.00;;;7.20;99.90;;;;;;5066092;28;20344;-80
2022/09/30 02:36:08;;;;;;;9.70;6.30;;;7.10;99.90;;;;;;5065878;28;20389;-80
2022/09/30 02:39:03;;;;;;;30.27;6.90;;;7.20;99.90;;;;;;5037661;28;20403;-80
2022/09/30 02:41:53;;;;;;;12.20;5.60;;;7.20;99.90;;;;;;5080419;28;20410;-79
2022/09/30 02:44:38;;;;;;;23.87;6.23;;;7.20;99.90;;;;;;5065183;28;20457;-79
2022/09/30 02:47:34;;;;;;;12.03;6.03;;;7.30;99.90;;;;;;5065107;28;20455;-80
2022/09/30 02:50:41;;;;;;;7.50;4.93;;;7.60;99.90;;;;;;5065951;28;20907;-80
2022/09/30 02:53:34;;;;;;;7.23;5.10;;;7.80;99.90;;;;;;5065226;28;20401;-80
2022/09/30 02:56:49;;;;;;;7.30;6.70;;;8.00;99.90;;;;;;5065061;28;20449;-80
2022/09/30 02:59:33;;;;;;;14.63;5.33;;;8.10;99.90;;;;;;5066731;28;20401;-80
2022/09/30 03:02:20;;;;;;;10.60;5.40;;;8.10;99.90;;;;;;5080039;28;20443;-80
2022/09/30 03:05:05;;;;;;;31.43;6.27;;;8.20;99.90;;;;;;5064926;28;20526;-80
2022/09/30 03:07:50;;;;;;;13.93;6.77;;;8.20;99.90;;;;;;5079856;28;20412;-80
2022/09/30 03:10:34;;;;;;;55.40;7.10;;;8.10;99.90;;;;;;5064923;28;20825;-79
2022/09/30 03:13:41;;;;;;;25.47;6.33;;;7.80;99.90;;;;;;5064745;28;20423;-80
2022/09/30 03:16:59;;;;;;;20.13;5.13;;;7.90;99.90;;;;;;5064611;28;20386;-78
2022/09/30 03:20:06;;;;;;;24.17;6.07;;;7.60;99.90;;;;;;5065504;28;20965;-79
2022/09/30 03:23:09;;;;;;;9.20;6.47;;;7.30;99.90;;;;;;5079765;28;20791;-80
2022/09/30 03:26:11;;;;;;;16.60;8.00;;;7.60;99.90;;;;;;5064317;28;20836;-80
2022/09/30 03:29:20;;;;;;;8.97;5.80;;;7.70;99.90;;;;;;5050611;28;20383;-80
2022/09/30 03:32:29;;;;;;;10.60;7.50;;;7.90;99.90;;;;;;5079492;28;20393;-79
2022/09/30 03:35:49;;;;;;;27.57;7.27;;;7.90;99.90;;;;;;5078804;28;20396;-80
2022/09/30 03:38:51;;;;;;;15.93;6.90;;;7.80;99.90;;;;;;5058033;28;20443;-79
2022/09/30 03:41:53;;;;;;;19.33;6.43;;;7.70;99.90;;;;;;5081972;28;20360;-80
2022/09/30 03:44:44;;;;;;;22.27;6.23;;;7.60;99.90;;;;;;5066771;28;20442;-80
2022/09/30 03:47:33;;;;;;;28.17;6.67;;;7.80;99.90;;;;;;5048837;28;20453;-80
2022/09/30 03:50:22;;;;;;;34.23;6.83;;;7.70;99.90;;;;;;5063086;28;20411;-79
2022/09/30 03:53:11;;;;;;;10.70;5.13;;;7.60;99.90;;;;;;5061404;28;20444;-79
2022/09/30 03:55:55;;;;;;;33.93;6.40;;;7.60;99.90;;;;;;5039372;28;20383;-79
2022/09/30 03:58:43;;;;;;;31.30;6.10;;;7.50;99.90;;;;;;5028169;28;20966;-79
2022/09/30 04:01:28;;;;;;;23.73;4.87;;;7.20;99.90;;;;;;5043561;28;20521;-79
2022/09/30 04:04:12;;;;;;;16.43;5.70;;;7.10;99.90;;;;;;5042912;28;20389;-79
2022/09/30 04:06:57;;;;;;;23.10;5.97;;;7.30;99.90;;;;;;5047147;28;20496;-77
2022/09/30 04:09:41;;;;;;;31.93;4.80;;;7.30;99.90;;;;;;5045080;28;20402;-79
2022/09/30 04:12:26;;;;;;;4.97;4.67;;;7.50;99.90;;;;;;5047778;28;20414;-79
2022/09/30 04:15:10;;;;;;;7.20;4.60;;;7.60;99.90;;;;;;5042745;28;20387;-79
2022/09/30 04:17:55;;;;;;;7.07;4.90;;;7.80;99.90;;;;;;5042593;28;20541;-79
2022/09/30 04:20:40;;;;;;;19.43;4.80;;;7.90;99.90;;;;;;5043260;28;20418;-79
2022/09/30 04:23:24;;;;;;;7.60;4.70;;;7.70;99.90;;;;;;5043458;28;20408;-78
2022/09/30 04:26:12;;;;;;;6.93;4.40;;;7.20;99.90;;;;;;5042745;28;20511;-78
2022/09/30 04:28:57;;;;;;;7.90;5.03;;;7.00;99.90;;;;;;5044529;28;20385;-79
2022/09/30 04:31:42;;;;;;;10.30;5.40;;;7.10;99.90;;;;;;5043922;28;20391;-78
2022/09/30 04:34:26;;;;;;;6.63;4.60;;;6.90;99.90;;;;;;5041710;28;20369;-79
2022/09/30 04:37:10;;;;;;;11.53;4.20;;;6.70;99.90;;;;;;5056052;28;21037;-79
2022/09/30 04:39:55;;;;;;;15.20;6.83;;;6.60;99.90;;;;;;5063116;28;20471;-79
2022/09/30 04:42:41;;;;;;;8.53;4.90;;;6.60;99.90;;;;;;5062411;28;20401;-79
2022/09/30 04:45:26;;;;;;;6.23;5.03;;;6.90;99.90;;;;;;5061779;28;20439;-79
2022/09/30 04:48:12;;;;;;;9.30;4.30;;;7.10;99.90;;;;;;5063618;28;20352;-79
2022/09/30 04:50:58;;;;;;;15.33;5.33;;;7.10;99.90;;;;;;5063652;28;20463;-79
2022/09/30 04:53:43;;;;;;;22.20;5.20;;;7.10;99.90;;;;;;5061725;28;20433;-78
2022/09/30 04:56:27;;;;;;;5.70;5.13;;;6.70;99.90;;;;;;5064558;28;20445;-78
2022/09/30 04:59:12;;;;;;;6.20;5.60;;;6.80;99.90;;;;;;5049126;28;20417;-80
2022/09/30 05:01:57;;;;;;;8.07;5.13;;;6.80;99.90;;;;;;5071555;28;20522;-78
2022/09/30 05:04:41;;;;;;;11.93;5.40;;;6.70;99.90;;;;;;5071956;28;20966;-78
2022/09/30 05:07:26;;;;;;;6.93;3.90;;;6.60;99.90;;;;;;5048930;28;20837;-77
2022/09/30 05:10:12;;;;;;;6.93;4.87;;;6.60;99.90;;;;;;5056302;28;20473;-78
2022/09/30 05:12:57;;;;;;;12.97;5.37;;;6.50;99.90;;;;;;5065483;28;20417;-77
2022/09/30 05:15:41;;;;;;;13.83;6.10;;;6.60;99.90;;;;;;5057803;28;20472;-77
2022/09/30 05:18:27;;;;;;;10.23;6.57;;;6.60;99.90;;;;;;5049907;28;20367;-77
2022/09/30 05:21:14;;;;;;;17.73;4.90;;;6.60;99.90;;;;;;5050110;28;20425;-77
2022/09/30 05:23:59;;;;;;;5.83;4.70;;;6.70;99.90;;;;;;5064648;28;20421;-77
2022/09/30 05:26:43;;;;;;;11.63;4.90;;;6.70;99.90;;;;;;5050876;28;20508;-77
2022/09/30 05:29:28;;;;;;;15.93;5.70;;;6.60;99.90;;;;;;5058504;28;20434;-77
2022/09/30 05:32:13;;;;;;;7.73;5.20;;;6.70;99.90;;;;;;5068493;28;20440;-77
2022/09/30 05:34:57;;;;;;;5.57;5.07;;;6.80;99.90;;;;;;5055573;28;20422;-78
2022/09/30 05:37:42;;;;;;;39.00;6.07;;;6.70;99.90;;;;;;5066698;28;20403;-77
2022/09/30 05:40:27;;;;;;;10.30;5.80;;;6.80;99.90;;;;;;5031378;28;20454;-78
2022/09/30 05:43:11;;;;;;;19.03;4.43;;;6.70;99.90;;;;;;5043929;28;20419;-80
2022/09/30 05:45:56;;;;;;;5.60;3.83;;;6.60;99.90;;;;;;5048196;28;20447;-80
2022/09/30 05:48:41;;;;;;;6.60;4.60;;;6.60;99.90;;;;;;5064469;28;20444;-79
2022/09/30 05:51:26;;;;;;;32.50;5.97;;;6.60;99.90;;;;;;5030166;28;20418;-78
2022/09/30 05:54:10;;;;;;;6.27;5.27;;;6.90;99.90;;;;;;5052151;28;20392;-78
2022/09/30 05:56:54;;;;;;;27.67;5.50;;;6.80;99.90;;;;;;5054289;28;20457;-78
2022/09/30 05:59:39;;;;;;;13.13;5.17;;;6.70;99.90;;;;;;5050429;28;20425;-78
2022/09/30 06:02:24;;;;;;;23.47;6.27;;;6.60;99.90;;;;;;5060297;28;20456;-77
2022/09/30 06:05:09;;;;;;;11.00;4.30;;;6.70;99.90;;;;;;5057458;28;20442;-79
2022/09/30 06:07:54;;;;;;;8.87;5.20;;;6.70;99.90;;;;;;5046103;28;20891;-79
2022/09/30 06:10:41;;;;;;;28.30;5.83;;;6.70;99.90;;;;;;5060936;28;20472;-80
2022/09/30 06:13:27;;;;;;;26.17;5.13;;;6.70;99.90;;;;;;5042919;28;20441;-80
2022/09/30 06:16:12;;;;;;;9.20;4.87;;;6.80;99.90;;;;;;5056594;28;20420;-78
2022/09/30 06:18:58;;;;;;;17.83;4.77;;;7.00;99.90;;;;;;5064554;28;20482;-80
2022/09/30 06:21:42;;;;;;;17.57;6.07;;;6.50;99.90;;;;;;5047924;28;20827;-79
2022/09/30 06:24:27;;;;;;;18.17;5.27;;;6.20;99.90;;;;;;5058380;28;20392;-79
2022/09/30 06:27:12;;;;;;;8.10;4.87;;;6.10;99.90;;;;;;5054948;28;20572;-80
2022/09/30 06:29:56;;;;;;;4.63;4.23;;;6.10;99.90;;;;;;5055387;28;20441;-79
2022/09/30 06:32:42;;;;;;;14.13;4.60;;;6.00;99.90;;;;;;5049857;28;20442;-79
2022/09/30 06:35:27;;;;;;;11.20;4.30;;;6.10;99.90;;;;;;5053959;28;20425;-78
2022/09/30 06:38:15;;;;;;;17.23;4.20;;;6.00;99.90;;;;;;5046374;28;20430;-80
2022/09/30 06:41:00;;;;;;;5.20;3.37;;;6.00;99.90;;;;;;5057228;28;20752;-80
2022/09/30 06:43:44;;;;;;;10.80;4.63;;;6.00;99.90;;;;;;5052862;28;20434;-78
2022/09/30 06:46:29;;;;;;;8.60;3.50;;;6.00;99.90;;;;;;5045710;28;20501;-79
2022/09/30 06:49:14;;;;;;;11.33;3.90;;;6.00;99.90;;;;;;5046856;28;20491;-80
2022/09/30 06:52:00;;;;;;;10.97;3.30;;;6.00;99.90;;;;;;5044423;28;20445;-79
2022/09/30 06:54:46;;;;;;;8.60;4.67;;;5.80;99.90;;;;;;5049856;28;20469;-78
2022/09/30 06:57:30;;;;;;;6.73;4.17;;;5.90;99.90;;;;;;5053695;28;20479;-78
2022/09/30 07:00:16;;;;;;;3.50;3.20;;;5.90;99.90;;;;;;5055642;28;20436;-78
2022/09/30 07:03:08;;;;;;;9.53;3.10;;;6.00;99.90;;;;;;5052918;28;20443;-76
2022/09/30 07:05:56;;;;;;;23.27;5.30;;;5.90;99.90;;;;;;5046652;28;20443;-80
2022/09/30 07:08:41;;;;;;;4.50;3.37;;;6.00;99.90;;;;;;5048657;28;20426;-80
2022/09/30 07:11:25;;;;;;;8.93;3.60;;;5.90;99.90;;;;;;5033480;28;20513;-80
2022/09/30 07:14:12;;;;;;;4.20;3.80;;;6.10;99.90;;;;;;5051083;28;20585;-77
2022/09/30 07:16:57;;;;;;;5.33;4.80;;;6.10;99.90;;;;;;5050443;28;20438;-81
2022/09/30 07:19:42;;;;;;;7.03;3.97;;;6.20;99.90;;;;;;5054965;28;20494;-80
2022/09/30 07:22:27;;;;;;;3.37;2.87;;;6.30;99.90;;;;;;5057265;28;20407;-80
2022/09/30 07:25:13;;;;;;;14.53;3.80;;;6.50;99.90;;;;;;5056491;28;20468;-79
2022/09/30 07:27:57;;;;;;;7.33;4.57;;;6.00;99.90;;;;;;5055876;28;20449;-79
2022/09/30 07:30:44;;;;;;;10.90;6.57;;;6.30;99.90;;;;;;5054647;28;20498;-80
2022/09/30 07:33:31;;;;;;;4.70;4.30;;;6.90;99.90;;;;;;5058701;28;20449;-80
2022/09/30 07:36:18;;;;;;;8.87;7.20;;;7.40;99.90;;;;;;5029260;28;20441;-79
2022/09/30 07:39:06;;;;;;;6.60;5.97;;;7.70;99.90;;;;;;5055737;28;20497;-80
2022/09/30 07:41:52;;;;;;;7.50;5.97;;;7.80;99.90;;;;;;5058811;28;20428;-80
2022/09/30 07:44:40;;;;;;;6.23;5.60;;;7.20;99.90;;;;;;5050669;28;20433;-80
2022/09/30 07:47:25;;;;;;;6.43;5.20;;;7.20;99.90;;;;;;5059636;28;20529;-80
2022/09/30 07:50:14;;;;;;;8.00;5.57;;;7.30;99.90;;;;;;5058798;28;20483;-78
2022/09/30 07:52:58;;;;;;;6.30;4.93;;;7.10;99.90;;;;;;5059742;28;20437;-79
2022/09/30 07:55:43;;;;;;;5.97;5.47;;;7.50;99.90;;;;;;5074892;28;20440;-79
2022/09/30 07:58:28;;;;;;;7.77;6.30;;;7.90;99.90;;;;;;5070265;28;20445;-78
2022/09/30 08:01:15;;;;;;;5.77;5.17;;;7.60;99.90;;;;;;5071583;28;20460;-79
2022/09/30 08:04:02;;;;;;;8.70;5.90;;;7.20;99.90;;;;;;5076102;28;20449;-80
2022/09/30 08:06:52;;;;;;;7.90;6.70;;;7.40;99.90;;;;;;5062905;28;20461;-80
2022/09/30 08:09:37;;;;;;;11.33;7.23;;;7.60;99.90;;;;;;5066683;28;20471;-80
2022/09/30 08:12:35;;;;;;;6.40;5.40;;;7.70;99.90;;;;;;5062505;28;20934;-79
2022/09/30 08:15:21;;;;;;;6.30;5.33;;;7.80;99.90;;;;;;5037281;28;20426;-80
2022/09/30 08:18:05;;;;;;;7.20;5.73;;;7.80;99.90;;;;;;5044664;28;20779;-81
2022/09/30 08:20:50;;;;;;;6.57;5.60;;;7.80;99.90;;;;;;5041689;28;20972;-81
2022/09/30 08:23:35;;;;;;;6.07;5.47;;;7.60;99.90;;;;;;5050973;28;20436;-80
2022/09/30 08:26:19;;;;;;;8.43;5.60;;;7.60;99.90;;;;;;5044889;28;20451;-81
2022/09/30 08:29:05;;;;;;;6.63;5.63;;;7.80;99.90;;;;;;5029329;28;20449;-80
2022/09/30 08:31:50;;;;;;;7.37;6.27;;;8.20;99.90;;;;;;5039887;28;21253;-81
2022/09/30 08:34:34;;;;;;;8.60;6.47;;;8.60;99.90;;;;;;5035231;28;20437;-80
2022/09/30 08:37:20;;;;;;;8.50;6.03;;;8.80;99.90;;;;;;5053868;28;20474;-80
2022/09/30 08:40:08;;;;;;;6.60;6.00;;;8.80;99.90;;;;;;5031358;28;20441;-78
2022/09/30 08:43:09;;;;;;;9.70;7.30;;;8.70;99.90;;;;;;5040796;28;20420;-79
2022/09/30 08:46:16;;;;;;;8.03;7.23;;;8.90;99.90;;;;;;5054639;28;20834;-81
2022/09/30 08:49:32;;;;;;;7.63;6.93;;;8.70;99.90;;;;;;5069284;28;20480;-78
2022/09/30 08:52:24;;;;;;;8.63;7.50;;;8.60;99.90;;;;;;5068740;28;20462;-79
2022/09/30 08:55:20;;;;;;;11.40;7.80;;;8.80;99.90;;;;;;5054949;28;20904;-81
2022/09/30 08:58:10;;;;;;;8.87;7.63;;;8.80;99.90;;;;;;5066281;28;20437;-79
2022/09/30 09:01:23;;;;;;;10.00;7.73;;;9.80;99.90;;;;;;5066821;28;20465;-80
2022/09/30 09:04:08;;;;;;;10.47;8.90;;;10.70;99.90;;;;;;5063066;28;20493;-80
2022/09/30 09:07:09;;;;;;;10.83;8.80;;;11.70;99.90;;;;;;5059759;28;20481;-79
2022/09/30 09:10:27;;;;;;;15.10;11.70;;;12.40;99.90;;;;;;5065255;28;20441;-80
2022/09/30 09:13:41;;;;;;;12.40;8.63;;;12.90;99.90;;;;;;5066694;28;20437;-79
2022/09/30 09:16:38;;;;;;;9.70;7.70;;;13.80;99.90;;;;;;5057661;28;20437;-80
2022/09/30 09:19:28;;;;;;;9.47;7.67;;;16.70;99.90;;;;;;5059908;28;20509;-79
2022/09/30 09:22:14;;;;;;;9.27;8.37;;;15.20;99.90;;;;;;5059363;28;21850;-81
2022/09/30 09:25:01;;;;;;;9.70;8.00;;;17.50;99.90;;;;;;5064373;28;20448;-79
2022/09/30 09:27:57;;;;;;;8.67;7.13;;;17.30;99.90;;;;;;5057743;28;20449;-81
2022/09/30 09:30:48;;;;;;;9.80;8.40;;;16.60;99.90;;;;;;5053485;28;20441;-82
2022/09/30 09:33:38;;;;;;;10.00;7.70;;;17.50;99.90;;;;;;5058243;28;20429;-80
2022/09/30 09:36:49;;;;;;;9.70;6.57;;;16.90;99.90;;;;;;5056256;28;21280;-79
2022/09/30 09:40:03;;;;;;;8.47;7.53;;;15.80;99.90;;;;;;5056842;28;20477;-79
2022/09/30 09:43:02;;;;;;;9.60;8.47;;;15.40;99.90;;;;;;5047555;28;20516;-83
2022/09/30 09:45:59;;;;;;;12.77;7.80;;;15.80;99.90;;;;;;5049202;28;20465;-81
2022/09/30 09:48:44;;;;;;;8.00;6.57;;;16.30;99.90;;;;;;5044919;28;20505;-82
2022/09/30 09:51:35;;;;;;;6.80;6.20;;;17.20;99.90;;;;;;5043878;28;20482;-81
2022/09/30 09:54:21;;;;;;;7.63;6.93;;;17.90;99.90;;;;;;5041792;28;20857;-80
2022/09/30 09:57:08;;;;;;;11.13;7.10;;;18.00;99.90;;;;;;5045348;28;20460;-80
2022/09/30 09:59:58;;;;;;;7.83;7.13;;;17.90;99.90;;;;;;5049768;28;20444;-81
2022/09/30 10:02:43;;;;;;;7.13;6.50;;;17.80;99.90;;;;;;5041774;28;20539;-82
2022/09/30 10:05:31;;;;;;;8.17;6.70;;;18.00;99.90;;;;;;5039967;28;20449;-82
2022/09/30 10:08:20;;;;;;;10.03;6.50;;;18.00;99.90;;;;;;5046205;28;20430;-82
2022/09/30 10:11:16;;;;;;;7.50;6.60;;;18.70;99.90;;;;;;5044865;28;20544;-80
2022/09/30 10:14:00;;;;;;;11.67;7.67;;;18.40;99.90;;;;;;5040129;28;20445;-82
2022/09/30 10:16:45;;;;;;;6.50;5.90;;;17.80;99.90;;;;;;5043985;28;20945;-81
2022/09/30 10:19:33;;;;;;;7.27;6.53;;;18.70;99.90;;;;;;5034687;28;20421;-79
2022/09/30 10:22:23;;;;;;;6.37;5.87;;;19.20;99.90;;;;;;5043513;28;20429;-81
2022/09/30 10:25:19;;;;;;;6.90;6.30;;;18.80;99.90;;;;;;5041742;28;20421;-80
2022/09/30 10:28:22;;;;;;;8.10;7.33;;;18.60;99.90;;;;;;5044769;28;20437;-81
2022/09/30 10:31:22;;;;;;;7.20;6.50;;;18.80;99.90;;;;;;5038701;28;20448;-78
2022/09/30 10:34:28;;;;;;;8.63;7.70;;;19.40;99.90;;;;;;5049324;28;20425;-80
2022/09/30 10:37:19;;;;;;;8.87;8.07;;;17.80;99.90;;;;;;5041192;28;20417;-81
2022/09/30 10:40:08;;;;;;;7.60;6.90;;;17.60;99.90;;;;;;5036971;28;20501;-83
2022/09/30 10:42:54;;;;;;;9.70;7.80;;;18.40;99.90;;;;;;5026265;28;20563;-81
2022/09/30 10:45:40;;;;;;;13.63;7.40;;;17.90;99.90;;;;;;5047619;28;20465;-82
2022/09/30 10:48:30;;;;;;;8.33;7.20;;;16.80;99.90;;;;;;5044164;28;20454;-80
2022/09/30 10:51:26;;;;;;;8.40;7.67;;;16.70;99.90;;;;;;5044174;28;20513;-81
2022/09/30 10:54:49;;;;;;;8.00;7.30;;;16.00;99.90;;;;;;5043742;28;20446;-81
2022/09/30 10:57:36;;;;;;;8.43;6.80;;;17.00;99.90;;;;;;5024590;28;20442;-79
2022/09/30 11:00:26;;;;;;;9.27;7.83;;;18.70;99.90;;;;;;5016287;28;20493;-78
2022/09/30 11:03:15;;;;;;;9.17;8.00;;;19.00;99.90;;;;;;5027921;28;20473;-80
2022/09/30 11:06:00;;;;;;;8.03;7.30;;;18.80;99.90;;;;;;5001863;28;20473;-80
2022/09/30 11:09:01;;;;;;;7.37;6.60;;;19.70;99.90;;;;;;4990329;28;20634;-80
2022/09/30 11:11:55;;;;;;;7.87;7.07;;;20.40;99.90;;;;;;5016081;28;20813;-80
2022/09/30 11:15:01;;;;;;;7.10;6.20;;;20.70;99.80;;;;;;5019160;28;20513;-80
2022/09/30 11:18:02;;;;;;;9.40;6.83;;;21.00;97.20;;;;;;5020773;28;20864;-81
2022/09/30 11:20:55;;;;;;;8.63;5.77;;;21.30;96.00;;;;;;5031651;28;20462;-81
2022/09/30 11:23:56;;;;;;;5.17;4.70;;;19.90;95.40;;;;;;5009886;28;20661;-79
2022/09/30 11:27:08;;;;;;;7.50;5.50;;;20.60;96.60;;;;;;5038932;28;20481;-81
2022/09/30 11:30:09;;;;;;;5.30;4.80;;;19.70;95.40;;;;;;5056574;28;20450;-80
2022/09/30 11:33:22;;;;;;;5.77;4.50;;;18.50;97.40;;;;;;5054141;28;20445;-79
2022/09/30 11:36:32;;;;;;;4.70;3.83;;;19.30;96.20;;;;;;5055538;28;20429;-82
2022/09/30 11:39:39;;;;;;;5.13;3.80;;;19.60;96.50;;;;;;5058349;28;20473;-80
2022/09/30 11:42:42;;;;;;;5.53;4.70;;;19.60;96.70;;;;;;5053573;28;20433;-82
2022/09/30 11:46:03;;;;;;;4.20;3.90;;;21.30;95.60;;;;;;5049699;28;20488;-80
2022/09/30 11:49:13;;;;;;;4.80;4.20;;;22.80;91.60;;;;;;5063198;28;21071;-81
2022/09/30 11:52:22;;;;;;;4.63;4.10;;;23.30;91.60;;;;;;5055309;28;20461;-81
2022/09/30 11:55:33;;;;;;;2.80;2.60;;;24.50;83.20;;;;;;5063308;28;20502;-82
2022/09/30 11:58:25;;;;;;;3.78;3.47;;;24.50;73.30;;;;;;5057855;28;20436;-82
2022/09/30 12:01:32;;;;;;;3.83;3.20;;;22.50;76.20;;;;;;5063493;28;20274;-82
2022/09/30 12:04:30;;;;;;;3.90;3.43;;;20.40;82.90;;;;;;5056219;28;20461;-82
2022/09/30 12:07:21;;;;;;;5.93;2.70;;;19.80;86.50;;;;;;5042360;28;20593;-82
2022/09/30 12:10:27;;;;;;;2.60;2.40;;;20.40;88.10;;;;;;5046044;28;20683;-82
2022/09/30 12:13:28;;;;;;;2.50;2.33;;;22.50;82.60;;;;;;5043785;28;20501;-81
2022/09/30 12:16:19;;;;;;;2.93;2.57;;;23.90;76.30;;;;;;5048320;28;20494;-82
2022/09/30 12:19:19;;;;;;;3.67;3.23;;;24.40;74.10;;;;;;5044878;28;20440;-81
2022/09/30 12:22:14;;;;;;;2.30;2.07;;;24.40;71.00;;;;;;5003013;28;20479;-80
2022/09/30 12:25:01;;;;;;;3.40;2.87;;;22.00;78.50;;;;;;5003874;28;20430;-81
2022/09/30 12:30:15;;;;;;;2.37;2.20;;;22.60;78.80;;;;;;5006638;28;21013;-80
2022/09/30 12:31:42;;;;;;;5.20;2.77;;;22.00;75.70;;;;;;5010249;28;20441;-81
2022/09/30 12:35:06;;;;;;;3.50;2.50;;;19.80;78.00;;;;;;5015822;28;20426;-80
2022/09/30 12:38:15;;;;;;;2.60;2.40;;;21.30;78.10;;;;;;5000790;28;21163;-83
2022/09/30 12:41:32;;;;;;;2.17;1.90;;;21.50;76.50;;;;;;5016796;28;20433;-81
2022/09/30 12:44:55;;;;;;;5.00;2.43;;;22.10;75.10;;;;;;5015182;28;20512;-82
2022/09/30 12:47:49;;;;;;;5.63;2.83;;;23.60;69.30;;;;;;5008939;28;20505;-80
2022/09/30 12:50:41;;;;;;;3.23;2.17;;;24.10;69.80;;;;;;5015273;28;21156;-81
2022/09/30 12:53:34;;;;;;;2.63;2.43;;;22.50;67.80;;;;;;5037791;28;20468;-80
2022/09/30 12:56:18;;;;;;;2.60;2.40;;;20.70;74.70;;;;;;5045176;28;20481;-79
2022/09/30 12:59:03;;;;;;;4.93;3.13;;;21.60;76.40;;;;;;5060811;28;20417;-83
2022/09/30 13:01:48;;;;;;;3.47;2.80;;;23.30;72.60;;;;;;5071983;28;20472;-81
2022/09/30 13:04:35;;;;;;;2.07;1.87;;;24.50;70.60;;;;;;5041280;28;20412;-81
2022/09/30 13:07:21;;;;;;;7.97;2.47;;;24.90;68.10;;;;;;5054497;28;20440;-81
2022/09/30 13:10:27;;;;;;;2.63;2.43;;;22.30;70.00;;;;;;5058476;28;20421;-81
2022/09/30 13:13:24;;;;;;;4.63;2.10;;;22.20;73.00;;;;;;5051594;28;20453;-82
2022/09/30 13:16:09;;;;;;;3.37;1.93;;;22.90;74.80;;;;;;5052233;28;20468;-82
2022/09/30 13:18:59;;;;;;;3.57;3.27;;;24.50;70.50;;;;;;5033938;28;20465;-82
2022/09/30 13:21:43;;;;;;;2.30;2.20;;;22.30;70.70;;;;;;5003624;28;20501;-81
2022/09/30 13:25:09;;;;;;;2.97;2.30;;;22.20;74.30;;;;;;5006262;28;20438;-80
2022/09/30 13:28:30;;;;;;;2.50;2.30;;;24.50;68.10;;;;;;5039479;28;20434;-81
2022/09/30 13:31:22;;;;;;;2.13;2.03;;;24.30;62.30;;;;;;5008858;28;20435;-81
2022/09/30 13:34:20;;;;;;;2.10;2.00;;;22.80;67.00;;;;;;4995564;28;20432;-81
2022/09/30 13:37:26;;;;;;;2.27;2.13;;;21.60;68.70;;;;;;5014068;28;20487;-81
2022/09/30 13:40:17;;;;;;;2.80;2.60;;;20.70;73.00;;;;;;5000913;28;20511;-83
2022/09/30 13:43:03;;;;;;;3.93;3.63;;;21.00;72.60;;;;;;4977462;28;20546;-81
2022/09/30 13:45:52;;;;;;;2.90;2.30;;;20.90;74.00;;;;;;5004718;28;20483;-81
2022/09/30 13:48:44;;;;;;;2.33;2.17;;;21.80;72.10;;;;;;5013419;28;20439;-82
2022/09/30 13:51:32;;;;;;;2.00;1.90;;;22.20;75.10;;;;;;5008729;28;20470;-81
2022/09/30 13:54:39;;;;;;;2.40;2.20;;;22.60;70.30;;;;;;5028301;28;20512;-78
2022/09/30 13:57:39;;;;;;;4.43;2.27;;;24.60;66.90;;;;;;5024868;28;20490;-81
2022/09/30 14:00:46;;;;;;;3.63;2.90;;;23.80;62.60;;;;;;5008909;28;20599;-81
2022/09/30 14:03:49;;;;;;;2.33;2.23;;;21.80;68.00;;;;;;4980173;28;21031;-82
2022/09/30 14:06:59;;;;;;;3.53;2.13;;;22.00;67.80;;;;;;4969225;28;20928;-80
2022/09/30 14:10:14;;;;;;;3.57;2.13;;;22.60;66.00;;;;;;4990720;28;20849;-82
2022/09/30 14:13:22;;;;;;;2.50;2.37;;;21.30;66.70;;;;;;4995082;28;20539;-79
2022/09/30 14:16:35;;;;;;;2.70;2.50;;;21.00;70.40;;;;;;4989878;28;20467;-81
2022/09/30 14:19:36;;;;;;;2.40;2.20;;;22.60;69.80;;;;;;4993802;28;20444;-82
2022/09/30 14:22:25;;;;;;;2.40;1.47;;;22.10;62.70;;;;;;4970748;28;21042;-82
2022/09/30 14:25:16;;;;;;;1.80;1.70;;;21.00;67.70;;;;;;4958282;28;20425;-79
2022/09/30 14:28:11;;;;;;;3.33;2.20;;;21.30;67.80;;;;;;4971192;28;20542;-80
2022/09/30 14:31:07;;;;;;;2.33;2.13;;;23.30;64.40;;;;;;4988066;28;20455;-81
2022/09/30 14:33:52;;;;;;;1.90;1.80;;;23.50;64.80;;;;;;4997256;28;20486;-81
2022/09/30 14:36:38;;;;;;;5.00;2.37;;;23.20;62.90;;;;;;5007040;28;20862;-80
2022/09/30 14:39:30;;;;;;;2.47;2.10;;;22.40;65.50;;;;;;5011116;28;20696;-80
2022/09/30 14:42:23;;;;;;;2.47;2.27;;;22.30;67.00;;;;;;4996970;28;20946;-80
2022/09/30 14:45:14;;;;;;;1.90;1.80;;;22.30;66.90;;;;;;5016915;28;20497;-82
2022/09/30 14:48:07;;;;;;;2.63;1.90;;;21.80;68.90;;;;;;5000722;28;20447;-80
2022/09/30 14:51:03;;;;;;;5.70;3.00;;;22.20;68.10;;;;;;5013745;28;20451;-80
2022/09/30 14:53:55;;;;;;;2.50;2.30;;;21.90;67.20;;;;;;5049141;28;20520;-80
2022/09/30 14:56:40;;;;;;;3.40;2.30;;;22.30;69.60;;;;;;5055670;28;20517;-81
2022/09/30 14:59:46;;;;;;;2.37;2.17;;;22.50;69.90;;;;;;5054364;28;20442;-80
2022/09/30 15:02:32;;;;;;;2.40;2.20;;;22.10;67.50;;;;;;5001186;28;20528;-80
2022/09/30 15:05:20;;;;;;;2.40;2.20;;;21.70;70.00;;;;;;5009791;28;20506;-79